createdAt,value
2018-12-30T00:00:27.383Z,0.00
2018-12-30T00:01:27.393Z,0.00
2018-12-30T00:02:27.344Z,0.00
2018-12-30T00:03:27.384Z,0.00
2018-12-30T00:04:27.315Z,0.00
2018-12-30T00:05:27.284Z,0.00
2018-12-30T00:06:27.280Z,0.00
2018-12-30T00:07:27.241Z,0.00
2018-12-30T00:08:27.238Z,0.00
2018-12-30T00:09:27.213Z,0.00
2018-12-30T00:10:27.205Z,0.00
2018-12-30T00:11:27.175Z,0.00
2018-12-30T00:12:27.149Z,0.00
2018-12-30T00:13:27.142Z,0.00
2018-12-30T00:14:27.152Z,0.00
2018-12-30T00:15:27.095Z,0.00
2018-12-30T00:16:27.087Z,0.00
2018-12-30T00:17:27.061Z,0.00
2018-12-30T00:18:27.051Z,0.00
2018-12-30T00:19:27.025Z,0.00
2018-12-30T00:20:27.004Z,0.00
2018-12-30T00:21:26.980Z,0.00
2018-12-30T00:22:26.975Z,0.00
2018-12-30T00:23:26.944Z,0.00
2018-12-30T00:24:26.999Z,0.00
2018-12-30T00:25:26.920Z,0.00
2018-12-30T00:26:26.916Z,0.00
2018-12-30T00:27:26.873Z,0.00
2018-12-30T00:28:26.850Z,0.00
2018-12-30T00:29:26.830Z,0.00
2018-12-30T00:30:26.961Z,0.00
2018-12-30T00:31:26.808Z,0.00
2018-12-30T00:32:26.782Z,0.00
2018-12-30T00:33:26.765Z,0.00
2018-12-30T00:34:26.737Z,0.00
2018-12-30T00:35:26.712Z,0.00
2018-12-30T00:36:26.733Z,0.00
2018-12-30T00:37:26.689Z,0.00
2018-12-30T00:38:26.669Z,0.00
2018-12-30T00:39:26.636Z,0.00
2018-12-30T00:40:26.639Z,0.00
2018-12-30T00:41:26.639Z,0.00
2018-12-30T00:42:26.588Z,0.00
2018-12-30T00:43:26.560Z,0.00
2018-12-30T00:44:26.607Z,0.00
2018-12-30T00:45:26.535Z,0.00
2018-12-30T00:46:26.546Z,0.00
2018-12-30T00:47:26.499Z,0.00
2018-12-30T00:48:26.470Z,0.00
2018-12-30T00:49:26.467Z,0.00
2018-12-30T00:50:26.440Z,0.00
2018-12-30T00:51:26.420Z,0.00
2018-12-30T00:52:26.406Z,0.00
2018-12-30T00:53:26.382Z,0.00
2018-12-30T00:54:26.370Z,0.00
2018-12-30T00:55:26.336Z,0.00
2018-12-30T00:56:26.331Z,0.00
2018-12-30T00:57:26.310Z,0.00
2018-12-30T00:58:26.291Z,0.00
2018-12-30T00:59:26.300Z,0.00
2018-12-30T01:00:26.258Z,0.00
2018-12-30T01:01:26.220Z,0.00
2018-12-30T01:02:26.228Z,0.00
2018-12-30T01:03:26.179Z,0.00
2018-12-30T01:04:26.170Z,0.00
2018-12-30T01:05:26.157Z,0.00
2018-12-30T01:06:26.131Z,0.00
2018-12-30T01:07:26.133Z,0.00
2018-12-30T01:08:26.100Z,0.00
2018-12-30T01:09:26.086Z,0.00
2018-12-30T01:10:26.057Z,0.00
2018-12-30T01:11:26.041Z,0.00
2018-12-30T01:12:26.022Z,0.00
2018-12-30T01:13:25.994Z,0.00
2018-12-30T01:14:26.131Z,0.00
2018-12-30T01:15:25.964Z,0.00
2018-12-30T01:16:25.953Z,0.00
2018-12-30T01:17:25.927Z,0.00
2018-12-30T01:18:25.909Z,0.00
2018-12-30T01:19:25.881Z,0.00
2018-12-30T01:20:26.009Z,0.00
2018-12-30T01:21:25.849Z,0.00
2018-12-30T01:22:25.829Z,0.00
2018-12-30T01:23:25.806Z,0.00
2018-12-30T01:24:25.805Z,0.00
2018-12-30T01:25:25.771Z,0.00
2018-12-30T01:26:25.880Z,0.00
2018-12-30T01:27:25.723Z,0.00
2018-12-30T01:28:25.707Z,0.00
2018-12-30T01:29:25.700Z,0.00
2018-12-30T01:30:25.683Z,0.00
2018-12-30T01:31:25.648Z,0.00
2018-12-30T01:32:25.643Z,0.00
2018-12-30T01:33:25.633Z,0.00
2018-12-30T01:34:25.610Z,0.00
2018-12-30T01:35:25.581Z,0.00
2018-12-30T01:36:25.572Z,0.00
2018-12-30T01:37:25.576Z,0.00
2018-12-30T01:38:25.529Z,0.00
2018-12-30T01:39:25.510Z,0.00
2018-12-30T01:40:25.485Z,0.00
2018-12-30T01:41:25.499Z,0.00
2018-12-30T01:42:25.477Z,0.00
2018-12-30T01:43:25.427Z,0.00
2018-12-30T01:44:25.412Z,0.00
2018-12-30T01:45:25.384Z,0.00
2018-12-30T01:46:25.370Z,0.00
2018-12-30T01:47:25.384Z,0.00
2018-12-30T01:48:25.494Z,0.00
2018-12-30T01:49:25.309Z,0.00
2018-12-30T01:50:25.299Z,0.00
2018-12-30T01:51:32.828Z,0.00
2018-12-30T01:52:25.269Z,0.00
2018-12-30T01:53:25.238Z,0.00
2018-12-30T01:54:25.240Z,0.00
2018-12-30T01:55:25.197Z,0.00
2018-12-30T01:56:25.177Z,0.00
2018-12-30T01:57:25.243Z,0.00
2018-12-30T01:58:25.158Z,0.00
2018-12-30T01:59:25.170Z,0.00
2018-12-30T02:00:25.107Z,0.00
2018-12-30T02:01:25.097Z,0.00
2018-12-30T02:02:25.069Z,0.00
2018-12-30T02:03:25.044Z,0.00
2018-12-30T02:04:25.072Z,0.00
2018-12-30T02:05:25.018Z,0.00
2018-12-30T02:06:25.024Z,0.00
2018-12-30T02:07:24.978Z,0.00
2018-12-30T02:08:24.962Z,0.00
2018-12-30T02:09:24.939Z,0.00
2018-12-30T02:10:24.922Z,0.00
2018-12-30T02:11:24.948Z,0.00
2018-12-30T02:12:24.888Z,0.00
2018-12-30T02:13:24.877Z,0.00
2018-12-30T02:14:24.856Z,0.00
2018-12-30T02:15:24.841Z,0.00
2018-12-30T02:16:24.947Z,0.00
2018-12-30T02:17:24.782Z,0.00
2018-12-30T02:18:24.779Z,0.00
2018-12-30T02:19:24.756Z,0.00
2018-12-30T02:20:24.739Z,0.00
2018-12-30T02:21:24.728Z,0.00
2018-12-30T02:22:24.705Z,0.00
2018-12-30T02:23:24.677Z,0.00
2018-12-30T02:24:24.657Z,0.00
2018-12-30T02:25:24.652Z,0.00
2018-12-30T02:26:24.623Z,0.00
2018-12-30T02:27:24.620Z,0.00
2018-12-30T02:28:24.569Z,0.00
2018-12-30T02:29:24.560Z,0.00
2018-12-30T02:30:24.539Z,0.00
2018-12-30T02:31:24.524Z,0.00
2018-12-30T02:32:24.529Z,0.00
2018-12-30T02:33:24.525Z,0.00
2018-12-30T02:34:24.457Z,0.00
2018-12-30T02:35:24.467Z,0.00
2018-12-30T02:36:24.431Z,0.00
2018-12-30T02:37:24.404Z,0.00
2018-12-30T02:38:24.422Z,0.00
2018-12-30T02:39:24.362Z,0.00
2018-12-30T02:40:24.355Z,0.00
2018-12-30T02:41:24.336Z,0.00
2018-12-30T02:42:24.309Z,0.00
2018-12-30T02:43:24.345Z,0.00
2018-12-30T02:44:24.269Z,0.00
2018-12-30T02:45:24.261Z,0.00
2018-12-30T02:46:24.234Z,0.00
2018-12-30T02:47:24.232Z,0.00
2018-12-30T02:48:24.198Z,0.00
2018-12-30T02:49:24.194Z,0.00
2018-12-30T02:50:24.165Z,0.00
2018-12-30T02:51:24.148Z,0.00
2018-12-30T02:52:24.135Z,0.00
2018-12-30T02:53:24.109Z,0.00
2018-12-30T02:54:24.165Z,0.00
2018-12-30T02:55:24.075Z,0.00
2018-12-30T02:56:24.058Z,0.00
2018-12-30T02:57:24.050Z,0.00
2018-12-30T02:58:24.016Z,0.00
2018-12-30T02:59:24.003Z,0.00
2018-12-30T03:00:23.999Z,0.00
2018-12-30T03:01:23.963Z,0.00
2018-12-30T03:02:23.957Z,0.00
2018-12-30T03:03:23.919Z,0.00
2018-12-30T03:04:23.897Z,0.00
2018-12-30T03:05:23.915Z,0.00
2018-12-30T03:06:23.858Z,0.00
2018-12-30T03:07:23.834Z,0.00
2018-12-30T03:08:23.853Z,0.00
2018-12-30T03:09:23.803Z,0.00
2018-12-30T03:10:23.826Z,0.00
2018-12-30T03:11:23.779Z,0.00
2018-12-30T03:12:23.747Z,0.00
2018-12-30T03:13:23.725Z,0.00
2018-12-30T03:14:23.700Z,0.00
2018-12-30T03:15:23.683Z,0.00
2018-12-30T03:16:23.740Z,0.00
2018-12-30T03:17:23.652Z,0.00
2018-12-30T03:18:23.634Z,0.00
2018-12-30T03:19:23.614Z,0.00
2018-12-30T03:20:23.602Z,0.00
2018-12-30T03:21:23.571Z,0.00
2018-12-30T03:22:23.614Z,0.00
2018-12-30T03:23:23.535Z,0.00
2018-12-30T03:24:23.523Z,0.00
2018-12-30T03:25:23.511Z,0.00
2018-12-30T03:26:23.473Z,0.00
2018-12-30T03:27:23.460Z,0.00
2018-12-30T03:28:23.474Z,0.00
2018-12-30T03:29:23.423Z,0.00
2018-12-30T03:30:23.413Z,0.00
2018-12-30T03:31:23.384Z,0.00
2018-12-30T03:32:23.374Z,0.00
2018-12-30T03:33:23.344Z,0.00
2018-12-30T03:34:23.330Z,0.00
2018-12-30T03:35:23.314Z,0.00
2018-12-30T03:36:23.300Z,0.00
2018-12-30T03:37:23.270Z,0.00
2018-12-30T03:38:23.262Z,0.00
2018-12-30T03:39:23.266Z,0.00
2018-12-30T03:40:23.214Z,0.00
2018-12-30T03:41:23.197Z,0.00
2018-12-30T03:42:23.174Z,0.00
2018-12-30T03:43:23.164Z,0.00
2018-12-30T03:44:23.347Z,0.00
2018-12-30T03:45:23.136Z,0.00
2018-12-30T03:46:23.102Z,0.00
2018-12-30T03:47:23.087Z,0.00
2018-12-30T03:48:23.067Z,0.00
2018-12-30T03:49:23.066Z,0.00
2018-12-30T03:50:23.028Z,0.00
2018-12-30T03:51:23.015Z,0.00
2018-12-30T03:52:22.998Z,0.00
2018-12-30T03:53:22.962Z,0.00
2018-12-30T03:54:22.963Z,0.00
2018-12-30T03:55:22.929Z,0.00
2018-12-30T03:56:22.904Z,0.00
2018-12-30T03:57:22.891Z,0.00
2018-12-30T03:58:22.871Z,0.00
2018-12-30T03:59:22.914Z,0.00
2018-12-30T04:00:22.837Z,0.00
2018-12-30T04:01:22.858Z,0.00
2018-12-30T04:02:22.852Z,0.00
2018-12-30T04:03:22.786Z,0.00
2018-12-30T04:04:22.753Z,0.00
2018-12-30T04:05:22.744Z,0.00
2018-12-30T04:06:22.715Z,0.00
2018-12-30T04:07:22.713Z,0.00
2018-12-30T04:08:22.728Z,0.00
2018-12-30T04:09:22.675Z,0.00
2018-12-30T04:10:22.643Z,0.00
2018-12-30T04:11:22.636Z,0.00
2018-12-30T04:12:22.620Z,0.00
2018-12-30T04:13:22.645Z,0.00
2018-12-30T04:14:22.566Z,0.00
2018-12-30T04:15:22.557Z,0.00
2018-12-30T04:16:22.533Z,0.00
2018-12-30T04:17:22.513Z,0.00
2018-12-30T04:18:22.494Z,0.00
2018-12-30T04:19:22.502Z,0.00
2018-12-30T04:20:22.454Z,0.00
2018-12-30T04:21:22.437Z,0.00
2018-12-30T04:22:22.426Z,0.00
2018-12-30T04:23:22.424Z,0.00
2018-12-30T04:24:22.427Z,0.00
2018-12-30T04:25:22.359Z,0.00
2018-12-30T04:26:22.397Z,0.00
2018-12-30T04:27:22.331Z,0.00
2018-12-30T04:28:22.311Z,0.00
2018-12-30T04:29:22.284Z,0.00
2018-12-30T04:30:22.306Z,0.00
2018-12-30T04:31:22.251Z,0.00
2018-12-30T04:32:22.237Z,0.00
2018-12-30T04:33:22.251Z,0.00
2018-12-30T04:34:22.200Z,0.00
2018-12-30T04:35:22.171Z,0.00
2018-12-30T04:36:22.163Z,0.00
2018-12-30T04:37:22.137Z,0.00
2018-12-30T04:38:22.114Z,0.00
2018-12-30T04:39:22.093Z,0.00
2018-12-30T04:40:22.083Z,0.00
2018-12-30T04:41:22.071Z,0.00
2018-12-30T04:42:22.052Z,0.00
2018-12-30T04:43:22.022Z,0.00
2018-12-30T04:44:22.004Z,0.00
2018-12-30T04:45:22.035Z,0.00
2018-12-30T04:46:21.978Z,0.00
2018-12-30T04:47:21.945Z,0.00
2018-12-30T04:48:21.930Z,0.00
2018-12-30T04:49:21.926Z,0.00
2018-12-30T04:50:21.899Z,0.00
2018-12-30T04:51:21.894Z,0.00
2018-12-30T04:52:25.744Z,0.00
2018-12-30T04:53:21.883Z,0.00
2018-12-30T04:54:21.818Z,0.00
2018-12-30T04:55:21.807Z,0.00
2018-12-30T04:56:21.792Z,0.00
2018-12-30T04:57:21.771Z,0.00
2018-12-30T04:58:21.756Z,0.00
2018-12-30T04:59:21.732Z,0.00
2018-12-30T05:00:21.745Z,0.00
2018-12-30T05:01:21.688Z,0.00
2018-12-30T05:02:21.675Z,0.00
2018-12-30T05:03:21.694Z,0.00
2018-12-30T05:04:21.852Z,0.00
2018-12-30T05:05:23.260Z,0.00
2018-12-30T05:06:21.588Z,0.00
2018-12-30T05:07:21.579Z,0.00
2018-12-30T05:08:21.606Z,0.00
2018-12-30T05:09:21.550Z,0.00
2018-12-30T05:10:21.522Z,0.00
2018-12-30T05:11:21.496Z,0.00
2018-12-30T05:12:21.494Z,0.00
2018-12-30T05:13:21.502Z,0.00
2018-12-30T05:14:21.437Z,0.00
2018-12-30T05:15:21.425Z,0.00
2018-12-30T05:16:21.415Z,0.00
2018-12-30T05:17:21.416Z,0.00
2018-12-30T05:18:21.412Z,0.00
2018-12-30T05:19:21.345Z,0.00
2018-12-30T05:20:21.331Z,0.00
2018-12-30T05:21:21.308Z,0.00
2018-12-30T05:22:21.298Z,0.00
2018-12-30T05:23:21.317Z,0.00
2018-12-30T05:24:21.252Z,0.00
2018-12-30T05:25:21.272Z,0.00
2018-12-30T05:26:21.229Z,0.00
2018-12-30T05:27:21.197Z,0.00
2018-12-30T05:28:21.321Z,0.00
2018-12-30T05:29:21.167Z,0.00
2018-12-30T05:30:21.156Z,0.00
2018-12-30T05:31:21.119Z,0.00
2018-12-30T05:32:21.109Z,0.00
2018-12-30T05:33:21.096Z,0.00
2018-12-30T05:34:21.520Z,0.00
2018-12-30T05:35:21.046Z,0.00
2018-12-30T05:36:21.021Z,0.00
2018-12-30T05:37:21.004Z,0.00
2018-12-30T05:38:20.989Z,0.00
2018-12-30T05:39:20.973Z,0.00
2018-12-30T05:40:21.047Z,0.00
2018-12-30T05:41:20.939Z,0.00
2018-12-30T05:42:20.935Z,0.00
2018-12-30T05:43:20.903Z,0.00
2018-12-30T05:44:20.883Z,0.00
2018-12-30T05:45:20.859Z,0.00
2018-12-30T05:46:20.841Z,0.00
2018-12-30T05:47:20.973Z,0.00
2018-12-30T05:48:20.806Z,0.00
2018-12-30T05:49:20.796Z,0.00
2018-12-30T05:50:20.777Z,0.00
2018-12-30T05:51:20.741Z,0.00
2018-12-30T05:52:20.735Z,0.00
2018-12-30T05:53:20.738Z,0.00
2018-12-30T05:54:20.697Z,0.00
2018-12-30T05:55:20.694Z,0.00
2018-12-30T05:56:20.661Z,0.00
2018-12-30T05:57:20.628Z,0.00
2018-12-30T05:58:20.616Z,0.00
2018-12-30T05:59:20.603Z,0.00
2018-12-30T06:00:20.591Z,0.00
2018-12-30T06:01:20.707Z,0.00
2018-12-30T06:02:20.545Z,0.00
2018-12-30T06:03:20.517Z,0.00
2018-12-30T06:04:20.506Z,0.00
2018-12-30T06:05:20.489Z,0.00
2018-12-30T06:06:20.549Z,0.00
2018-12-30T06:07:20.442Z,0.00
2018-12-30T06:08:20.427Z,0.00
2018-12-30T06:09:20.403Z,0.00
2018-12-30T06:10:20.379Z,0.00
2018-12-30T06:11:20.371Z,0.00
2018-12-30T06:12:20.400Z,0.00
2018-12-30T06:13:20.338Z,0.00
2018-12-30T06:14:20.314Z,0.00
2018-12-30T06:15:20.305Z,0.00
2018-12-30T06:16:20.283Z,0.00
2018-12-30T06:17:20.274Z,0.00
2018-12-30T06:18:20.306Z,0.00
2018-12-30T06:19:20.225Z,0.00
2018-12-30T06:20:20.203Z,0.00
2018-12-30T06:21:20.190Z,0.00
2018-12-30T06:22:20.171Z,0.00
2018-12-30T06:23:20.139Z,0.00
2018-12-30T06:24:20.204Z,0.00
2018-12-30T06:25:20.117Z,0.00
2018-12-30T06:26:20.094Z,0.00
2018-12-30T06:27:20.073Z,0.00
2018-12-30T06:28:20.043Z,0.00
2018-12-30T06:29:20.039Z,0.00
2018-12-30T06:30:20.074Z,0.00
2018-12-30T06:31:19.991Z,0.00
2018-12-30T06:32:19.963Z,0.00
2018-12-30T06:33:19.960Z,0.00
2018-12-30T06:34:20.065Z,0.00
2018-12-30T06:35:19.909Z,0.00
2018-12-30T06:36:19.906Z,0.00
2018-12-30T06:37:19.873Z,0.00
2018-12-30T06:38:19.863Z,0.00
2018-12-30T06:39:19.852Z,0.00
2018-12-30T06:40:19.819Z,0.00
2018-12-30T06:41:19.822Z,0.00
2018-12-30T06:42:19.789Z,0.00
2018-12-30T06:43:19.760Z,0.00
2018-12-30T06:44:19.745Z,0.00
2018-12-30T06:45:19.734Z,0.00
2018-12-30T06:46:19.867Z,0.00
2018-12-30T06:47:19.693Z,0.00
2018-12-30T06:48:19.687Z,0.00
2018-12-30T06:49:19.665Z,0.00
2018-12-30T06:50:19.627Z,0.00
2018-12-30T06:51:19.618Z,0.00
2018-12-30T06:52:19.646Z,0.00
2018-12-30T06:53:19.586Z,0.00
2018-12-30T06:54:19.554Z,0.00
2018-12-30T06:55:19.550Z,0.00
2018-12-30T06:56:19.536Z,0.00
2018-12-30T06:57:19.511Z,0.00
2018-12-30T06:58:19.492Z,0.00
2018-12-30T06:59:19.477Z,0.00
2018-12-30T07:00:19.451Z,0.00
2018-12-30T07:01:19.425Z,0.00
2018-12-30T07:02:19.404Z,0.00
2018-12-30T07:03:19.415Z,0.00
2018-12-30T07:04:19.655Z,0.00
2018-12-30T07:05:19.359Z,0.00
2018-12-30T07:06:19.331Z,0.00
2018-12-30T07:07:19.360Z,0.00
2018-12-30T07:08:19.301Z,0.00
2018-12-30T07:09:19.348Z,0.00
2018-12-30T07:10:19.255Z,0.00
2018-12-30T07:11:19.256Z,0.00
2018-12-30T07:12:19.216Z,0.00
2018-12-30T07:13:19.216Z,0.00
2018-12-30T07:14:19.193Z,0.00
2018-12-30T07:15:19.200Z,0.00
2018-12-30T07:16:19.155Z,0.00
2018-12-30T07:17:19.139Z,0.00
2018-12-30T07:18:19.128Z,0.00
2018-12-30T07:19:19.096Z,0.00
2018-12-30T07:20:19.219Z,0.00
2018-12-30T07:21:19.056Z,0.00
2018-12-30T07:22:19.026Z,0.00
2018-12-30T07:23:19.028Z,0.00
2018-12-30T07:24:19.002Z,0.00
2018-12-30T07:25:18.979Z,0.00
2018-12-30T07:26:18.995Z,0.00
2018-12-30T07:27:18.940Z,0.00
2018-12-30T07:28:18.943Z,0.00
2018-12-30T07:29:18.903Z,0.00
2018-12-30T07:30:18.889Z,0.00
2018-12-30T07:31:19.003Z,0.00
2018-12-30T07:32:18.859Z,0.00
2018-12-30T07:33:18.829Z,0.00
2018-12-30T07:34:18.822Z,0.00
2018-12-30T07:35:18.795Z,0.00
2018-12-30T07:36:18.777Z,0.00
2018-12-30T07:37:18.777Z,0.00
2018-12-30T07:38:18.730Z,0.00
2018-12-30T07:39:18.709Z,0.00
2018-12-30T07:40:18.699Z,0.00
2018-12-30T07:41:18.674Z,0.00
2018-12-30T07:42:18.692Z,0.00
2018-12-30T07:43:18.636Z,0.00
2018-12-30T07:44:18.634Z,0.00
2018-12-30T07:45:18.594Z,5.63
2018-12-30T07:46:18.589Z,0.00
2018-12-30T07:47:18.697Z,0.00
2018-12-30T07:48:18.558Z,0.00
2018-12-30T07:49:18.521Z,5.63
2018-12-30T07:50:18.521Z,5.63
2018-12-30T07:51:18.483Z,5.63
2018-12-30T07:52:18.487Z,5.63
2018-12-30T07:53:18.459Z,5.63
2018-12-30T07:54:18.444Z,5.63
2018-12-30T07:55:18.424Z,5.63
2018-12-30T07:56:18.414Z,5.63
2018-12-30T07:57:18.382Z,11.25
2018-12-30T07:58:18.361Z,11.25
2018-12-30T07:59:18.350Z,5.63
2018-12-30T08:00:18.362Z,5.63
2018-12-30T08:01:18.323Z,11.25
2018-12-30T08:02:18.291Z,11.25
2018-12-30T08:03:18.272Z,5.63
2018-12-30T08:04:18.635Z,5.63
2018-12-30T08:05:18.235Z,11.25
2018-12-30T08:06:18.224Z,11.25
2018-12-30T08:07:18.204Z,11.25
2018-12-30T08:08:18.180Z,5.63
2018-12-30T08:09:18.159Z,5.63
2018-12-30T08:10:18.244Z,11.25
2018-12-30T08:11:18.123Z,5.63
2018-12-30T08:12:18.113Z,5.63
2018-12-30T08:13:18.083Z,5.63
2018-12-30T08:14:18.069Z,5.63
2018-12-30T08:15:18.042Z,11.25
2018-12-30T08:16:18.060Z,11.25
2018-12-30T08:17:18.021Z,16.88
2018-12-30T08:18:17.989Z,16.88
2018-12-30T08:19:17.983Z,11.25
2018-12-30T08:20:17.951Z,11.25
2018-12-30T08:21:17.971Z,11.25
2018-12-30T08:22:17.911Z,11.25
2018-12-30T08:23:21.645Z,22.50
2018-12-30T08:24:17.888Z,28.13
2018-12-30T08:25:17.894Z,22.50
2018-12-30T08:26:17.847Z,16.88
2018-12-30T08:27:17.834Z,16.88
2018-12-30T08:28:24.810Z,22.50
2018-12-30T08:29:17.799Z,22.50
2018-12-30T08:30:17.910Z,22.50
2018-12-30T08:31:17.751Z,22.50
2018-12-30T08:32:17.741Z,33.75
2018-12-30T08:33:17.707Z,33.75
2018-12-30T08:34:17.868Z,33.75
2018-12-30T08:35:17.682Z,33.75
2018-12-30T08:36:17.692Z,33.75
2018-12-30T08:37:17.629Z,33.75
2018-12-30T08:38:17.627Z,33.75
2018-12-30T08:39:17.592Z,33.75
2018-12-30T08:40:17.575Z,39.38
2018-12-30T08:41:17.605Z,45.00
2018-12-30T08:42:17.559Z,50.63
2018-12-30T08:43:17.522Z,56.25
2018-12-30T08:44:17.520Z,56.25
2018-12-30T08:45:17.481Z,56.25
2018-12-30T08:46:17.513Z,56.25
2018-12-30T08:47:17.476Z,50.63
2018-12-30T08:48:17.436Z,50.63
2018-12-30T08:49:17.425Z,50.63
2018-12-30T08:50:17.399Z,50.63
2018-12-30T08:51:17.415Z,56.25
2018-12-30T08:52:17.415Z,67.50
2018-12-30T08:53:17.337Z,78.75
2018-12-30T08:54:17.321Z,78.75
2018-12-30T08:55:17.297Z,84.38
2018-12-30T08:56:17.300Z,90.00
2018-12-30T08:57:17.280Z,73.13
2018-12-30T08:58:17.265Z,73.13
2018-12-30T08:59:17.234Z,78.75
2018-12-30T09:00:17.217Z,84.38
2018-12-30T09:01:17.205Z,95.63
2018-12-30T09:02:17.178Z,106.88
2018-12-30T09:03:17.187Z,112.50
2018-12-30T09:04:17.159Z,118.13
2018-12-30T09:05:17.129Z,118.13
2018-12-30T09:06:17.115Z,112.50
2018-12-30T09:07:17.080Z,101.25
2018-12-30T09:08:17.112Z,95.63
2018-12-30T09:09:17.051Z,90.00
2018-12-30T09:10:17.047Z,78.75
2018-12-30T09:11:17.015Z,67.50
2018-12-30T09:12:16.997Z,67.50
2018-12-30T09:13:16.981Z,61.88
2018-12-30T09:14:17.097Z,61.88
2018-12-30T09:15:16.950Z,73.13
2018-12-30T09:16:16.919Z,73.13
2018-12-30T09:17:18.355Z,84.38
2018-12-30T09:18:16.888Z,90.00
2018-12-30T09:19:16.877Z,95.63
2018-12-30T09:20:16.858Z,84.38
2018-12-30T09:21:16.830Z,78.75
2018-12-30T09:22:16.808Z,67.50
2018-12-30T09:23:16.810Z,73.13
2018-12-30T09:24:16.780Z,67.50
2018-12-30T09:25:16.769Z,67.50
2018-12-30T09:26:16.748Z,78.75
2018-12-30T09:27:16.779Z,78.75
2018-12-30T09:28:16.709Z,78.75
2018-12-30T09:29:16.686Z,78.75
2018-12-30T09:30:16.678Z,61.88
2018-12-30T09:31:16.649Z,61.88
2018-12-30T09:32:16.638Z,61.88
2018-12-30T09:33:16.647Z,67.50
2018-12-30T09:34:16.596Z,67.50
2018-12-30T09:35:16.581Z,67.50
2018-12-30T09:36:16.567Z,56.25
2018-12-30T09:37:16.678Z,56.25
2018-12-30T09:38:16.525Z,61.88
2018-12-30T09:39:16.520Z,67.50
2018-12-30T09:40:16.501Z,84.38
2018-12-30T09:41:16.475Z,84.38
2018-12-30T09:42:16.454Z,78.75
2018-12-30T09:43:16.452Z,84.38
2018-12-30T09:44:16.427Z,78.75
2018-12-30T09:45:16.415Z,84.38
2018-12-30T09:46:16.390Z,90.00
2018-12-30T09:47:16.368Z,106.88
2018-12-30T09:48:16.345Z,118.13
2018-12-30T09:49:16.370Z,129.38
2018-12-30T09:50:16.323Z,101.25
2018-12-30T09:51:16.288Z,84.38
2018-12-30T09:52:16.284Z,101.25
2018-12-30T09:53:16.255Z,101.25
2018-12-30T09:54:16.246Z,135.00
2018-12-30T09:55:16.229Z,140.63
2018-12-30T09:56:16.197Z,135.00
2018-12-30T09:57:16.266Z,140.63
2018-12-30T09:58:16.161Z,123.75
2018-12-30T09:59:16.152Z,129.38
2018-12-30T10:00:16.165Z,129.38
2018-12-30T10:01:16.115Z,140.63
2018-12-30T10:02:16.096Z,112.50
2018-12-30T10:03:16.076Z,129.38
2018-12-30T10:04:16.065Z,146.25
2018-12-30T10:05:16.114Z,151.88
2018-12-30T10:06:16.024Z,157.50
2018-12-30T10:07:16.027Z,163.13
2018-12-30T10:08:16.009Z,163.13
2018-12-30T10:09:15.975Z,146.25
2018-12-30T10:10:15.951Z,151.88
2018-12-30T10:11:15.965Z,129.38
2018-12-30T10:12:16.235Z,112.50
2018-12-30T10:13:16.051Z,135.00
2018-12-30T10:14:16.120Z,140.63
2018-12-30T10:15:16.024Z,135.00
2018-12-30T10:16:15.858Z,140.63
2018-12-30T10:17:15.971Z,106.88
2018-12-30T10:18:15.812Z,112.50
2018-12-30T10:19:15.795Z,112.50
2018-12-30T10:20:15.770Z,101.25
2018-12-30T10:21:15.761Z,118.13
2018-12-30T10:22:15.748Z,135.00
2018-12-30T10:23:15.742Z,118.13
2018-12-30T10:24:15.698Z,106.88
2018-12-30T10:25:15.679Z,101.25
2018-12-30T10:26:15.671Z,112.50
2018-12-30T10:27:15.718Z,106.88
2018-12-30T10:28:15.641Z,118.13
2018-12-30T10:29:15.628Z,112.50
2018-12-30T10:30:15.600Z,95.63
2018-12-30T10:31:15.582Z,73.13
2018-12-30T10:32:15.571Z,50.63
2018-12-30T10:33:15.556Z,39.38
2018-12-30T10:34:15.531Z,45.00
2018-12-30T10:35:15.508Z,45.00
2018-12-30T10:36:15.493Z,50.63
2018-12-30T10:37:15.471Z,56.25
2018-12-30T10:38:15.501Z,56.25
2018-12-30T10:39:15.581Z,61.88
2018-12-30T10:40:15.419Z,90.00
2018-12-30T10:41:15.409Z,123.75
2018-12-30T10:42:15.381Z,151.88
2018-12-30T10:43:15.373Z,168.75
2018-12-30T10:44:15.367Z,163.13
2018-12-30T10:45:15.338Z,157.50
2018-12-30T10:46:15.317Z,157.50
2018-12-30T10:47:15.288Z,185.63
2018-12-30T10:48:15.275Z,202.50
2018-12-30T10:49:15.257Z,174.38
2018-12-30T10:50:15.403Z,163.13
2018-12-30T10:51:15.239Z,180.00
2018-12-30T10:52:15.198Z,208.13
2018-12-30T10:53:15.180Z,253.13
2018-12-30T10:54:15.161Z,146.25
2018-12-30T10:55:15.148Z,106.88
2018-12-30T10:56:15.175Z,123.75
2018-12-30T10:57:15.123Z,168.75
2018-12-30T10:58:15.128Z,196.88
2018-12-30T10:59:15.088Z,180.00
2018-12-30T11:00:15.095Z,185.63
2018-12-30T11:01:15.049Z,180.00
2018-12-30T11:02:15.019Z,146.25
2018-12-30T11:03:15.006Z,157.50
2018-12-30T11:04:14.980Z,140.63
2018-12-30T11:05:15.020Z,163.13
2018-12-30T11:06:14.996Z,157.50
2018-12-30T11:07:14.927Z,118.13
2018-12-30T11:08:14.990Z,84.38
2018-12-30T11:09:14.899Z,95.63
2018-12-30T11:10:14.873Z,168.75
2018-12-30T11:11:14.870Z,348.75
2018-12-30T11:12:14.853Z,303.75
2018-12-30T11:13:14.832Z,247.50
2018-12-30T11:14:14.853Z,196.88
2018-12-30T11:15:14.785Z,241.88
2018-12-30T11:16:14.804Z,236.25
2018-12-30T11:17:14.758Z,264.38
2018-12-30T11:18:14.743Z,202.50
2018-12-30T11:19:16.375Z,230.63
2018-12-30T11:20:14.779Z,247.50
2018-12-30T11:21:14.701Z,241.88
2018-12-30T11:22:14.677Z,225.00
2018-12-30T11:23:14.646Z,219.38
2018-12-30T11:24:14.649Z,258.75
2018-12-30T11:25:14.620Z,258.75
2018-12-30T11:26:14.589Z,241.88
2018-12-30T11:27:14.590Z,236.25
2018-12-30T11:28:14.570Z,230.63
2018-12-30T11:29:14.582Z,213.75
2018-12-30T11:30:14.528Z,230.63
2018-12-30T11:31:14.506Z,219.38
2018-12-30T11:32:14.498Z,196.88
2018-12-30T11:33:14.470Z,185.63
2018-12-30T11:34:14.499Z,168.75
2018-12-30T11:35:14.444Z,174.38
2018-12-30T11:36:14.418Z,202.50
2018-12-30T11:37:14.409Z,230.63
2018-12-30T11:38:14.383Z,180.00
2018-12-30T11:39:14.416Z,140.63
2018-12-30T11:40:14.356Z,95.63
2018-12-30T11:41:14.325Z,106.88
2018-12-30T11:42:14.311Z,95.63
2018-12-30T11:43:14.303Z,73.13
2018-12-30T11:44:14.317Z,67.50
2018-12-30T11:45:14.257Z,73.13
2018-12-30T11:46:14.274Z,56.25
2018-12-30T11:47:14.233Z,56.25
2018-12-30T11:48:14.200Z,78.75
2018-12-30T11:49:14.194Z,78.75
2018-12-30T11:50:14.183Z,78.75
2018-12-30T11:51:14.150Z,73.13
2018-12-30T11:52:14.132Z,61.88
2018-12-30T11:53:14.111Z,67.50
2018-12-30T11:54:16.621Z,78.75
2018-12-30T11:55:14.201Z,90.00
2018-12-30T11:56:14.101Z,106.88
2018-12-30T11:57:14.043Z,106.88
2018-12-30T11:58:14.033Z,78.75
2018-12-30T11:59:14.011Z,73.13
2018-12-30T12:00:14.029Z,67.50
2018-12-30T12:01:14.010Z,56.25
2018-12-30T12:02:13.948Z,56.25
2018-12-30T12:03:13.950Z,67.50
2018-12-30T12:04:13.923Z,73.13
2018-12-30T12:05:13.899Z,78.75
2018-12-30T12:06:13.924Z,67.50
2018-12-30T12:07:13.865Z,67.50
2018-12-30T12:08:13.862Z,67.50
2018-12-30T12:09:13.837Z,84.38
2018-12-30T12:10:13.829Z,84.38
2018-12-30T12:11:13.813Z,95.63
2018-12-30T12:12:13.842Z,106.88
2018-12-30T12:13:13.764Z,84.38
2018-12-30T12:14:13.747Z,95.63
2018-12-30T12:15:13.737Z,84.38
2018-12-30T12:16:13.706Z,84.38
2018-12-30T12:17:13.704Z,84.38
2018-12-30T12:18:13.683Z,73.13
2018-12-30T12:19:13.665Z,84.38
2018-12-30T12:20:13.628Z,101.25
2018-12-30T12:21:13.615Z,90.00
2018-12-30T12:22:13.605Z,90.00
2018-12-30T12:23:13.604Z,78.75
2018-12-30T12:24:13.601Z,73.13
2018-12-30T12:25:13.541Z,84.38
2018-12-30T12:26:13.519Z,84.38
2018-12-30T12:27:13.525Z,67.50
2018-12-30T12:28:13.491Z,73.13
2018-12-30T12:29:13.547Z,90.00
2018-12-30T12:30:13.463Z,84.38
2018-12-30T12:31:13.437Z,78.75
2018-12-30T12:32:13.432Z,101.25
2018-12-30T12:33:13.409Z,123.75
2018-12-30T12:34:13.383Z,101.25
2018-12-30T12:35:13.369Z,118.13
2018-12-30T12:36:13.353Z,95.63
2018-12-30T12:37:13.331Z,84.38
2018-12-30T12:38:13.322Z,84.38
2018-12-30T12:39:13.301Z,123.75
2018-12-30T12:40:13.280Z,118.13
2018-12-30T12:41:13.269Z,101.25
2018-12-30T12:42:13.247Z,84.38
2018-12-30T12:43:13.235Z,78.75
2018-12-30T12:44:13.202Z,78.75
2018-12-30T12:45:13.202Z,84.38
2018-12-30T12:46:13.166Z,84.38
2018-12-30T12:47:13.179Z,95.63
2018-12-30T12:48:13.132Z,101.25
2018-12-30T12:49:13.106Z,95.63
2018-12-30T12:50:13.129Z,90.00
2018-12-30T12:51:13.148Z,101.25
2018-12-30T12:52:13.059Z,101.25
2018-12-30T12:53:13.042Z,95.63
2018-12-30T12:54:13.113Z,101.25
2018-12-30T12:55:13.005Z,95.63
2018-12-30T12:56:12.986Z,90.00
2018-12-30T12:57:12.977Z,106.88
2018-12-30T12:58:12.951Z,118.13
2018-12-30T12:59:12.929Z,123.75
2018-12-30T13:00:12.925Z,106.88
2018-12-30T13:01:12.906Z,140.63
2018-12-30T13:02:12.880Z,151.88
2018-12-30T13:03:12.897Z,157.50
2018-12-30T13:04:12.839Z,168.75